地図

経路データ

SID SEASON NUMBER BASIN SUBBASIN NAME ISO_TIME NATURE LAT LON WMO_WIND WMO_PRES WMO_AGENCY TRACK_TYPE DIST2LAND LANDFALL IFLAG USA_AGENCY USA_ATCF_ID USA_LAT USA_LON USA_RECORD USA_STATUS USA_WIND USA_PRES USA_SSHS USA_R34_NE USA_R34_SE USA_R34_SW USA_R34_NW USA_R50_NE USA_R50_SE USA_R50_SW USA_R50_NW USA_R64_NE USA_R64_SE USA_R64_SW USA_R64_NW USA_POCI USA_ROCI USA_RMW USA_EYE TOKYO_LAT TOKYO_LON TOKYO_GRADE TOKYO_WIND TOKYO_PRES TOKYO_R50_DIR TOKYO_R50_LONG TOKYO_R50_SHORT TOKYO_R30_DIR TOKYO_R30_LONG TOKYO_R30_SHORT TOKYO_LAND CMA_LAT CMA_LON CMA_CAT CMA_WIND CMA_PRES HKO_LAT HKO_LON HKO_CAT HKO_WIND HKO_PRES NEWDELHI_LAT NEWDELHI_LON NEWDELHI_GRADE NEWDELHI_WIND NEWDELHI_PRES NEWDELHI_CI NEWDELHI_DP NEWDELHI_POCI REUNION_LAT REUNION_LON REUNION_TYPE REUNION_WIND REUNION_PRES REUNION_TNUM REUNION_CI REUNION_RMW REUNION_R34_NE REUNION_R34_SE REUNION_R34_SW REUNION_R34_NW REUNION_R50_NE REUNION_R50_SE REUNION_R50_SW REUNION_R50_NW REUNION_R64_NE REUNION_R64_SE REUNION_R64_SW REUNION_R64_NW BOM_LAT BOM_LON BOM_TYPE BOM_WIND BOM_PRES BOM_TNUM BOM_CI BOM_RMW BOM_R34_NE BOM_R34_SE BOM_R34_SW BOM_R34_NW BOM_R50_NE BOM_R50_SE BOM_R50_SW BOM_R50_NW BOM_R64_NE BOM_R64_SE BOM_R64_SW BOM_R64_NW BOM_ROCI BOM_POCI BOM_EYE BOM_POS_METHOD BOM_PRES_METHOD NADI_LAT NADI_LON NADI_CAT NADI_WIND NADI_PRES WELLINGTON_LAT WELLINGTON_LON WELLINGTON_WIND WELLINGTON_PRES DS824_LAT DS824_LON DS824_STAGE DS824_WIND DS824_PRES TD9636_LAT TD9636_LON TD9636_STAGE TD9636_WIND TD9636_PRES TD9635_LAT TD9635_LON TD9635_WIND TD9635_PRES TD9635_ROCI NEUMANN_LAT NEUMANN_LON NEUMANN_CLASS NEUMANN_WIND NEUMANN_PRES MLC_LAT MLC_LON MLC_CLASS MLC_WIND MLC_PRES USA_GUST BOM_GUST BOM_GUST_PER REUNION_GUST REUNION_GUST_PER USA_SEAHGT USA_SEARAD_NE USA_SEARAD_SE USA_SEARAD_SW USA_SEARAD_NW STORM_SPEED STORM_DIR
1939282N07149 1939 70 WP MM NOT_NAMED 1939-10-09 09:00:00 NR 7.30000 149.300 main 1074 1072 __________O___ -1 7.30000 149.300 2 18 286
1939282N07149 1939 70 WP MM NOT_NAMED 1939-10-09 12:00:00 NR 7.54250 148.446 main 1081 1081 __________P___ -1 7.54250 148.446 2 17 286
1939282N07149 1939 70 WP MM NOT_NAMED 1939-10-09 15:00:00 NR 7.77730 147.624 main 1109 1109 __________P___ -1 7.77730 147.624 2 16 286
1939282N07149 1939 70 WP MM NOT_NAMED 1939-10-09 18:00:00 NR 7.99838 146.864 main 1131 1131 __________P___ -1 7.99838 146.864 2 15 287
1939282N07149 1939 70 WP MM NOT_NAMED 1939-10-09 21:00:00 NR 8.20000 146.200 main 1155 1155 __________O___ -1 8.20000 146.200 2 13 287
1939282N07149 1939 70 WP MM NOT_NAMED 1939-10-10 00:00:00 NR 8.37823 145.646 main 1181 1181 __________P___ -1 8.37823 145.646 2 11 288
1939282N07149 1939 70 WP MM NOT_NAMED 1939-10-10 03:00:00 NR 8.53537 145.144 main 1199 1199 __________P___ -1 8.53537 145.144 2 11 286
1939282N07149 1939 70 WP MM NOT_NAMED 1939-10-10 06:00:00 NR 8.67493 144.621 main 1230 1230 __________P___ -1 8.67493 144.621 2 12 283
1939282N07149 1939 70 WP MM NOT_NAMED 1939-10-10 09:00:00 NR 8.80000 144.000 main 1255 1255 __________O___ -1 8.80000 144.000 2 16 279
1939282N07149 1939 70 WP MM NOT_NAMED 1939-10-10 12:00:00 NR 8.92849 143.074 main 1292 1264 __________P___ -1 8.92849 143.074 2 19 277
1939282N07149 1939 70 WP MM NOT_NAMED 1939-10-10 15:00:00 NR 9.04033 142.060 main 1264 1241 __________P___ -1 9.04033 142.060 2 20 276
1939282N07149 1939 70 WP MM NOT_NAMED 1939-10-10 18:00:00 NR 9.13165 141.092 main 1241 1222 __________P___ -1 9.13165 141.092 2 17 275
1939282N07149 1939 70 WP MM NOT_NAMED 1939-10-10 21:00:00 NR 9.20000 140.300 main 1222 1213 __________O___ -1 9.20000 140.300 2 12 280
1939282N07149 1939 70 WP MM NOT_NAMED 1939-10-11 00:00:00 NR 9.33429 139.877 main 1215 1211 __________P___ -1 9.33429 139.877 2 7 290
1939282N07149 1939 70 WP MM NOT_NAMED 1939-10-11 03:00:00 NR 9.43552 139.636 main 1214 1210 __________P___ -1 9.43552 139.636 2 4 286
1939282N07149 1939 70 WP MM NOT_NAMED 1939-10-11 06:00:00 NR 9.44409 139.477 main 1210 1192 __________P___ -1 9.44409 139.477 2 4 248
1939282N07149 1939 70 WP MM NOT_NAMED 1939-10-11 09:00:00 NR 9.30000 139.300 main 1192 1108 __________O___ -1 9.30000 139.300 2 10 210
1939282N07149 1939 70 WP MM NOT_NAMED 1939-10-11 12:00:00 NR 8.57186 138.969 main 1108 1009 __________P___ -1 8.57186 138.969 2 17 204
1939282N07149 1939 70 WP MM NOT_NAMED 1939-10-11 15:00:00 NR 7.74822 138.604 main 998 931 __________P___ -1 7.74822 138.604 2 16 208
1939282N07149 1939 70 WP MM NOT_NAMED 1939-10-11 18:00:00 NR 7.17561 138.212 main 931 903 __________P___ -1 7.17561 138.212 2 10 236
1939282N07149 1939 70 WP MM NOT_NAMED 1939-10-11 21:00:00 NR 7.20000 137.800 main 918 918 __________O___ -1 7.20000 137.800 2 16 328
1939282N07149 1939 70 WP MM NOT_NAMED 1939-10-12 00:00:00 NR 8.48644 137.377 main 1050 1050 __________P___ -1 8.48644 137.377 2 33 345
1939282N07149 1939 70 WP MM NOT_NAMED 1939-10-12 03:00:00 NR 10.3526 136.930 main 1171 1169 __________P___ -1 10.3526 136.930 2 40 347
1939282N07149 1939 70 WP MM NOT_NAMED 1939-10-12 06:00:00 NR 12.3427 136.467 main 1175 1153 __________P___ -1 12.3427 136.467 2 38 346
1939282N07149 1939 70 WP MM NOT_NAMED 1939-10-12 09:00:00 NR 14.0000 136.000 main 1155 1125 __________O___ -1 14.0000 136.000 2 25 339
1939282N07149 1939 70 WP MM NOT_NAMED 1939-10-12 12:00:00 NR 14.7046 135.551 main 1127 1084 __________P___ -1 14.7046 135.551 2 13 320
1939282N07149 1939 70 WP MM NOT_NAMED 1939-10-12 15:00:00 NR 15.0252 135.104 main 1084 1046 __________P___ -1 15.0252 135.104 2 10 296
1939282N07149 1939 70 WP MM NOT_NAMED 1939-10-12 18:00:00 NR 15.1333 134.655 main 1046 998 __________P___ -1 15.1333 134.655 2 9 281
1939282N07149 1939 70 WP MM NOT_NAMED 1939-10-12 21:00:00 NR 15.2000 134.200 main 998 965 __________O___ -1 15.2000 134.200 2 9 290
1939282N07149 1939 70 WP MM NOT_NAMED 1939-10-13 00:00:00 NR 15.4535 133.735 main 959 928 __________P___ -1 15.4535 133.735 2 10 299
1939282N07149 1939 70 WP MM NOT_NAMED 1939-10-13 03:00:00 NR 15.7046 133.264 main 928 889 __________P___ -1 15.7046 133.264 2 11 300
1939282N07149 1939 70 WP MM NOT_NAMED 1939-10-13 06:00:00 NR 15.9784 132.785 main 895 864 __________P___ -1 15.9784 132.785 2 11 303
1939282N07149 1939 70 WP MM NOT_NAMED 1939-10-13 09:00:00 NR 16.3000 132.300 main 864 845 __________O___ -1 16.3000 132.300 4 13 307
1939282N07149 1939 70 WP MM NOT_NAMED 1939-10-13 12:00:00 NR 16.7408 131.748 main 836 816 __________P___ -1 16.7408 131.748 4 14 311
1939282N07149 1939 70 WP MM NOT_NAMED 1939-10-13 15:00:00 NR 17.2233 131.197 main 816 791 __________P___ -1 17.2233 131.197 4 14 314
1939282N07149 1939 70 WP MM NOT_NAMED 1939-10-13 18:00:00 NR 17.6941 130.698 main 797 785 __________P___ -1 17.6941 130.698 4 12 316
1939282N07149 1939 70 WP MM NOT_NAMED 1939-10-13 21:00:00 NR 18.1000 130.300 main 786 783 __________O___ -1 18.1000 130.300 4 8 319
1939282N07149 1939 70 WP MM NOT_NAMED 1939-10-14 00:00:00 NR 18.3259 130.117 main 783 783 __________P___ -1 18.3259 130.117 4 5 327
1939282N07149 1939 70 WP MM NOT_NAMED 1939-10-14 03:00:00 NR 18.4908 130.031 main 789 789 __________P___ -1 18.4908 130.031 4 4 336
1939282N07149 1939 70 WP MM NOT_NAMED 1939-10-14 06:00:00 NR 18.6604 129.955 main 803 791 __________P___ -1 18.6604 129.955 4 5 332
1939282N07149 1939 70 WP MM NOT_NAMED 1939-10-14 09:00:00 NR 18.9000 129.800 main 792 763 __________O___ -1 18.9000 129.800 4 8 322
1939282N07149 1939 70 WP MM NOT_NAMED 1939-10-14 12:00:00 NR 19.2925 129.440 main 753 719 __________P___ -1 19.2925 129.440 4 12 318
1939282N07149 1939 70 WP MM NOT_NAMED 1939-10-14 15:00:00 NR 19.7608 128.991 main 721 681 __________P___ -1 19.7608 128.991 4 13 318
1939282N07149 1939 70 WP MM NOT_NAMED 1939-10-14 18:00:00 NR 20.2737 128.496 main 684 654 __________P___ -1 20.2737 128.496 4 14 318
1939282N07149 1939 70 WP MM NOT_NAMED 1939-10-14 21:00:00 NR 20.8000 128.000 main 654 622 __________O___ -1 20.8000 128.000 4 13 314
1939282N07149 1939 70 WP MM NOT_NAMED 1939-10-15 00:00:00 NR 21.1840 127.472 main 627 599 __________P___ -1 21.1840 127.472 4 13 309
1939282N07149 1939 70 WP MM NOT_NAMED 1939-10-15 03:00:00 NR 21.5914 126.965 main 599 545 __________P___ -1 21.5914 126.965 4 13 317
1939282N07149 1939 70 WP MM NOT_NAMED 1939-10-15 06:00:00 NR 22.1028 126.551 main 545 486 __________P___ -1 22.1028 126.551 4 14 333
1939282N07149 1939 70 WP MM NOT_NAMED 1939-10-15 09:00:00 NR 22.8000 126.300 main 486 442 __________O___ -1 22.8000 126.300 4 18 350
1939282N07149 1939 70 WP MM NOT_NAMED 1939-10-15 12:00:00 NR 23.8601 126.209 main 440 424 __________P___ -1 23.8601 126.209 4 23 359
1939282N07149 1939 70 WP MM NOT_NAMED 1939-10-15 15:00:00 NR 25.0947 126.298 main 432 432 __________P___ -1 25.0947 126.298 4 25 7
1939282N07149 1939 70 WP MM NOT_NAMED 1939-10-15 18:00:00 NR 26.3570 126.563 main 486 486 __________P___ -1 26.3570 126.563 4 25 15
1939282N07149 1939 70 WP MM NOT_NAMED 1939-10-15 21:00:00 NR 27.5000 127.000 main 516 415 __________O___ -1 27.5000 127.000 4 22 23
1939282N07149 1939 70 WP MM NOT_NAMED 1939-10-16 00:00:00 NR 28.3524 127.496 main 406 317 __________P___ -1 28.3524 127.496 4 19 33
1939282N07149 1939 70 WP MM NOT_NAMED 1939-10-16 03:00:00 NR 29.0623 128.165 main 302 217 __________P___ -1 29.0623 128.165 4 19 45
1939282N07149 1939 70 WP MM NOT_NAMED 1939-10-16 06:00:00 NR 29.6663 129.001 main 202 115 __________P___ -1 29.6663 129.001 4 20 54
1939282N07149 1939 70 WP MM NOT_NAMED 1939-10-16 09:00:00 NR 30.2000 130.000 main 111 38 __________O___ -1 30.2000 130.000 4 22 59
1939282N07149 1939 70 WP MM NOT_NAMED 1939-10-16 12:00:00 NR 30.7976 131.189 main 50 45 __________P___ -1 30.7976 131.189 4 24 63
1939282N07149 1939 70 WP MM NOT_NAMED 1939-10-16 15:00:00 NR 31.3183 132.524 main 104 104 __________P___ -1 31.3183 132.524 4 25 68
1939282N07149 1939 70 WP MM NOT_NAMED 1939-10-16 18:00:00 NR 31.7288 133.898 main 139 139 __________P___ -1 31.7288 133.898 4 24 73
1939282N07149 1939 70 WP MM NOT_NAMED 1939-10-16 21:00:00 NR 32.0000 135.200 main 163 144 __________O___ -1 32.0000 135.200 4 20 78
1939282N07149 1939 70 WP MM NOT_NAMED 1939-10-17 00:00:00 NR 32.1348 136.230 main 149 148 __________P___ -1 32.1348 136.230 4 17 85
1939282N07149 1939 70 WP MM NOT_NAMED 1939-10-17 03:00:00 NR 32.1399 137.171 main 195 195 __________P___ -1 32.1399 137.171 4 16 93
1939282N07149 1939 70 WP MM NOT_NAMED 1939-10-17 06:00:00 NR 32.0507 138.101 main 257 257 __________P___ -1 32.0507 138.101 4 17 98
1939282N07149 1939 70 WP MM NOT_NAMED 1939-10-17 09:00:00 NR 31.9000 139.100 main 302 302 __________O___ -1 31.9000 139.100 7 20 99
1939282N07149 1939 70 WP MM NOT_NAMED 1939-10-17 12:00:00 NR 31.7354 140.401 main 355 355 __________P___ -1 31.7354 140.401 7 23 100
1939282N07149 1939 70 WP MM NOT_NAMED 1939-10-17 15:00:00 NR 31.5128 141.756 main 418 418 __________P___ -1 31.5128 141.756 7 23 102
1939282N07149 1939 70 WP MM NOT_NAMED 1939-10-17 18:00:00 NR 31.2575 143.033 main 494 494 __________P___ -1 31.2575 143.033 7 21 104
1939282N07149 1939 70 WP MM NOT_NAMED 1939-10-17 21:00:00 NR 31.0000 144.100 main 580 580 __________O___ -1 31.0000 144.100 7 16 107
1939282N07149 1939 70 WP MM NOT_NAMED 1939-10-18 00:00:00 NR 30.8056 144.785 main 638 638 __________P___ -1 30.8056 144.785 7 11 111
1939282N07149 1939 70 WP MM NOT_NAMED 1939-10-18 03:00:00 NR 30.6211 145.261 main 686 686 __________P___ -1 30.6211 145.261 7 8 117
1939282N07149 1939 70 WP MM NOT_NAMED 1939-10-18 06:00:00 NR 30.4264 145.632 main 722 722 __________P___ -1 30.4264 145.632 7 8 123
1939282N07149 1939 70 WP MM NOT_NAMED 1939-10-18 09:00:00 NR 30.2000 146.000 main 764 764 __________O___ -1 30.2000 146.000 7 9 126
1939282N07149 1939 70 WP MM NOT_NAMED 1939-10-18 12:00:00 NR 29.9250 146.444 main 814 814 __________P___ -1 29.9250 146.444 7 10 125
1939282N07149 1939 70 WP MM NOT_NAMED 1939-10-18 15:00:00 NR 29.6081 146.959 main 878 878 __________P___ -1 29.6081 146.959 7 11 125
1939282N07149 1939 70 WP MM NOT_NAMED 1939-10-18 18:00:00 NR 29.2620 147.519 main 936 936 __________P___ -1 29.2620 147.519 7 12 125
1939282N07149 1939 70 WP MM NOT_NAMED 1939-10-18 21:00:00 NR 28.9000 148.100 main 1008 __________O___ -1 28.9000 148.100 7 12 125

デジタル台風データ・検索

IBTrACS Databaseについて

本データベースは、米国NOAAが公開する1842年以降の世界の熱帯低気圧のベストトラックデータアーカイブInternational Best Track Archive for Climate Stewardship (IBTrACS)を、ウェブで閲覧しやすい形式に変換したものです。

最終更新日:2021-12-01